sensor_id;sensor_type;location;lat;lon;timestamp;P1;durP1;ratioP1;P2;durP2;ratioP2
7707;SDS011;3896;48.758;8.888;2023-06-22T00:00:43;6.93;;;6.20;;
7707;SDS011;3896;48.758;8.888;2023-06-22T00:03:09;6.07;;;5.37;;
7707;SDS011;3896;48.758;8.888;2023-06-22T00:05:35;6.57;;;5.50;;
7707;SDS011;3896;48.758;8.888;2023-06-22T00:08:03;7.40;;;6.10;;
7707;SDS011;3896;48.758;8.888;2023-06-22T00:10:30;6.80;;;5.77;;
7707;SDS011;3896;48.758;8.888;2023-06-22T00:12:55;8.20;;;6.53;;
7707;SDS011;3896;48.758;8.888;2023-06-22T00:15:21;6.70;;;5.60;;
7707;SDS011;3896;48.758;8.888;2023-06-22T00:17:46;7.77;;;6.07;;
7707;SDS011;3896;48.758;8.888;2023-06-22T00:20:12;8.37;;;6.03;;
7707;SDS011;3896;48.758;8.888;2023-06-22T00:22:39;8.07;;;5.70;;
7707;SDS011;3896;48.758;8.888;2023-06-22T00:25:06;9.20;;;5.97;;
7707;SDS011;3896;48.758;8.888;2023-06-22T00:27:32;6.87;;;6.00;;
7707;SDS011;3896;48.758;8.888;2023-06-22T00:29:58;8.00;;;5.50;;
7707;SDS011;3896;48.758;8.888;2023-06-22T00:32:24;8.67;;;6.63;;
7707;SDS011;3896;48.758;8.888;2023-06-22T00:34:50;6.70;;;5.40;;
7707;SDS011;3896;48.758;8.888;2023-06-22T00:37:15;8.33;;;5.83;;
7707;SDS011;3896;48.758;8.888;2023-06-22T00:39:42;6.47;;;5.67;;
7707;SDS011;3896;48.758;8.888;2023-06-22T00:42:08;6.57;;;5.70;;
7707;SDS011;3896;48.758;8.888;2023-06-22T00:44:37;8.10;;;5.90;;
7707;SDS011;3896;48.758;8.888;2023-06-22T00:47:03;9.63;;;6.27;;
7707;SDS011;3896;48.758;8.888;2023-06-22T00:49:29;7.33;;;6.57;;
7707;SDS011;3896;48.758;8.888;2023-06-22T00:51:55;6.67;;;5.93;;
7707;SDS011;3896;48.758;8.888;2023-06-22T00:54:22;7.10;;;6.40;;
7707;SDS011;3896;48.758;8.888;2023-06-22T00:56:51;9.10;;;6.43;;
7707;SDS011;3896;48.758;8.888;2023-06-22T00:59:20;10.40;;;6.53;;
7707;SDS011;3896;48.758;8.888;2023-06-22T01:01:46;10.30;;;6.63;;
7707;SDS011;3896;48.758;8.888;2023-06-22T01:04:11;9.23;;;6.77;;
7707;SDS011;3896;48.758;8.888;2023-06-22T01:06:42;8.40;;;6.40;;
7707;SDS011;3896;48.758;8.888;2023-06-22T01:09:20;12.63;;;6.90;;
7707;SDS011;3896;48.758;8.888;2023-06-22T01:11:54;8.20;;;6.17;;
7707;SDS011;3896;48.758;8.888;2023-06-22T01:14:28;7.20;;;5.73;;
7707;SDS011;3896;48.758;8.888;2023-06-22T01:17:10;8.70;;;6.93;;
7707;SDS011;3896;48.758;8.888;2023-06-22T01:19:50;9.37;;;7.17;;
7707;SDS011;3896;48.758;8.888;2023-06-22T01:22:22;10.13;;;6.77;;
7707;SDS011;3896;48.758;8.888;2023-06-22T01:30:40;8.13;;;6.73;;
7707;SDS011;3896;48.758;8.888;2023-06-22T01:33:07;10.67;;;7.03;;
7707;SDS011;3896;48.758;8.888;2023-06-22T01:35:36;7.67;;;6.20;;
7707;SDS011;3896;48.758;8.888;2023-06-22T01:38:03;11.40;;;7.27;;
7707;SDS011;3896;48.758;8.888;2023-06-22T01:40:30;10.50;;;7.00;;
7707;SDS011;3896;48.758;8.888;2023-06-22T01:42:58;8.23;;;6.60;;
7707;SDS011;3896;48.758;8.888;2023-06-22T01:45:25;10.23;;;6.50;;
7707;SDS011;3896;48.758;8.888;2023-06-22T01:47:52;8.93;;;6.27;;
7707;SDS011;3896;48.758;8.888;2023-06-22T01:50:18;13.33;;;6.30;;
7707;SDS011;3896;48.758;8.888;2023-06-22T01:52:44;9.07;;;6.67;;
7707;SDS011;3896;48.758;8.888;2023-06-22T01:55:10;8.10;;;6.57;;
7707;SDS011;3896;48.758;8.888;2023-06-22T01:57:35;8.67;;;7.20;;
7707;SDS011;3896;48.758;8.888;2023-06-22T02:00:03;11.67;;;6.73;;
7707;SDS011;3896;48.758;8.888;2023-06-22T02:02:36;10.20;;;7.27;;
7707;SDS011;3896;48.758;8.888;2023-06-22T02:05:10;9.07;;;6.37;;
7707;SDS011;3896;48.758;8.888;2023-06-22T02:07:49;11.17;;;7.23;;
7707;SDS011;3896;48.758;8.888;2023-06-22T02:10:22;9.50;;;6.63;;
7707;SDS011;3896;48.758;8.888;2023-06-22T02:12:49;8.07;;;6.93;;
7707;SDS011;3896;48.758;8.888;2023-06-22T02:15:16;11.70;;;6.97;;
7707;SDS011;3896;48.758;8.888;2023-06-22T02:17:42;8.70;;;6.67;;
7707;SDS011;3896;48.758;8.888;2023-06-22T02:20:18;7.63;;;6.60;;
7707;SDS011;3896;48.758;8.888;2023-06-22T02:22:46;10.13;;;7.53;;
7707;SDS011;3896;48.758;8.888;2023-06-22T02:25:12;8.13;;;5.97;;
7707;SDS011;3896;48.758;8.888;2023-06-22T02:27:37;8.40;;;6.30;;
7707;SDS011;3896;48.758;8.888;2023-06-22T02:30:06;14.07;;;7.53;;
7707;SDS011;3896;48.758;8.888;2023-06-22T02:32:35;11.47;;;6.47;;
7707;SDS011;3896;48.758;8.888;2023-06-22T02:35:01;11.20;;;6.57;;
7707;SDS011;3896;48.758;8.888;2023-06-22T02:37:29;10.13;;;6.73;;
7707;SDS011;3896;48.758;8.888;2023-06-22T02:39:56;8.40;;;6.70;;
7707;SDS011;3896;48.758;8.888;2023-06-22T02:42:21;9.47;;;7.03;;
7707;SDS011;3896;48.758;8.888;2023-06-22T02:44:47;9.07;;;7.17;;
7707;SDS011;3896;48.758;8.888;2023-06-22T02:47:12;10.40;;;7.43;;
7707;SDS011;3896;48.758;8.888;2023-06-22T02:49:38;11.33;;;6.70;;
7707;SDS011;3896;48.758;8.888;2023-06-22T02:52:04;12.70;;;8.33;;
7707;SDS011;3896;48.758;8.888;2023-06-22T02:54:30;9.63;;;7.43;;
7707;SDS011;3896;48.758;8.888;2023-06-22T02:56:55;8.33;;;6.10;;
7707;SDS011;3896;48.758;8.888;2023-06-22T02:59:21;7.53;;;6.43;;
7707;SDS011;3896;48.758;8.888;2023-06-22T03:01:49;10.77;;;6.73;;
7707;SDS011;3896;48.758;8.888;2023-06-22T03:04:15;9.03;;;6.40;;
7707;SDS011;3896;48.758;8.888;2023-06-22T03:06:41;10.97;;;6.67;;
7707;SDS011;3896;48.758;8.888;2023-06-22T03:09:06;11.20;;;7.67;;
7707;SDS011;3896;48.758;8.888;2023-06-22T03:11:33;8.60;;;6.10;;
7707;SDS011;3896;48.758;8.888;2023-06-22T03:13:59;10.03;;;6.70;;
7707;SDS011;3896;48.758;8.888;2023-06-22T03:16:26;13.77;;;6.80;;
7707;SDS011;3896;48.758;8.888;2023-06-22T03:18:51;7.53;;;6.73;;
7707;SDS011;3896;48.758;8.888;2023-06-22T03:21:18;9.63;;;6.40;;
7707;SDS011;3896;48.758;8.888;2023-06-22T03:23:47;11.57;;;7.07;;
7707;SDS011;3896;48.758;8.888;2023-06-22T03:26:16;9.13;;;6.27;;
7707;SDS011;3896;48.758;8.888;2023-06-22T03:28:42;10.57;;;6.60;;
7707;SDS011;3896;48.758;8.888;2023-06-22T03:31:08;8.90;;;6.63;;
7707;SDS011;3896;48.758;8.888;2023-06-22T03:33:33;12.30;;;7.43;;
7707;SDS011;3896;48.758;8.888;2023-06-22T03:35:59;9.97;;;6.63;;
7707;SDS011;3896;48.758;8.888;2023-06-22T03:38:25;8.23;;;7.07;;
7707;SDS011;3896;48.758;8.888;2023-06-22T03:40:50;8.93;;;7.13;;
7707;SDS011;3896;48.758;8.888;2023-06-22T03:43:16;10.00;;;6.93;;
7707;SDS011;3896;48.758;8.888;2023-06-22T03:45:41;9.83;;;6.80;;
7707;SDS011;3896;48.758;8.888;2023-06-22T03:48:07;10.30;;;6.87;;
7707;SDS011;3896;48.758;8.888;2023-06-22T03:50:32;14.93;;;6.93;;
7707;SDS011;3896;48.758;8.888;2023-06-22T03:52:58;9.23;;;6.13;;
7707;SDS011;3896;48.758;8.888;2023-06-22T03:55:23;12.93;;;7.50;;
7707;SDS011;3896;48.758;8.888;2023-06-22T03:57:49;9.70;;;7.73;;
7707;SDS011;3896;48.758;8.888;2023-06-22T04:00:14;11.10;;;7.00;;
7707;SDS011;3896;48.758;8.888;2023-06-22T04:02:41;9.07;;;7.20;;
7707;SDS011;3896;48.758;8.888;2023-06-22T04:05:08;13.03;;;7.13;;
7707;SDS011;3896;48.758;8.888;2023-06-22T04:07:34;10.03;;;7.20;;
7707;SDS011;3896;48.758;8.888;2023-06-22T04:10:02;12.53;;;7.43;;
7707;SDS011;3896;48.758;8.888;2023-06-22T04:12:28;8.67;;;7.27;;
7707;SDS011;3896;48.758;8.888;2023-06-22T04:14:54;10.67;;;7.17;;
7707;SDS011;3896;48.758;8.888;2023-06-22T04:17:19;16.17;;;7.23;;
7707;SDS011;3896;48.758;8.888;2023-06-22T04:19:45;8.40;;;6.97;;
7707;SDS011;3896;48.758;8.888;2023-06-22T04:22:11;9.77;;;7.87;;
7707;SDS011;3896;48.758;8.888;2023-06-22T04:24:36;8.97;;;7.10;;
7707;SDS011;3896;48.758;8.888;2023-06-22T04:27:02;9.13;;;7.97;;
7707;SDS011;3896;48.758;8.888;2023-06-22T04:29:31;10.50;;;7.97;;
7707;SDS011;3896;48.758;8.888;2023-06-22T04:31:57;10.10;;;7.97;;
7707;SDS011;3896;48.758;8.888;2023-06-22T04:34:23;13.07;;;9.20;;
7707;SDS011;3896;48.758;8.888;2023-06-22T04:36:51;13.90;;;8.40;;
7707;SDS011;3896;48.758;8.888;2023-06-22T04:39:17;13.13;;;8.10;;
7707;SDS011;3896;48.758;8.888;2023-06-22T04:41:44;12.80;;;8.20;;
7707;SDS011;3896;48.758;8.888;2023-06-22T04:44:10;13.77;;;9.43;;
7707;SDS011;3896;48.758;8.888;2023-06-22T04:46:48;13.00;;;8.90;;
7707;SDS011;3896;48.758;8.888;2023-06-22T04:49:18;11.27;;;8.90;;
7707;SDS011;3896;48.758;8.888;2023-06-22T04:51:44;13.20;;;9.40;;
7707;SDS011;3896;48.758;8.888;2023-06-22T04:54:10;14.43;;;8.80;;
7707;SDS011;3896;48.758;8.888;2023-06-22T04:56:36;12.93;;;8.83;;
7707;SDS011;3896;48.758;8.888;2023-06-22T04:59:02;10.73;;;8.77;;
7707;SDS011;3896;48.758;8.888;2023-06-22T05:01:28;13.23;;;9.27;;
7707;SDS011;3896;48.758;8.888;2023-06-22T05:03:56;12.80;;;9.40;;
7707;SDS011;3896;48.758;8.888;2023-06-22T05:06:22;15.27;;;8.83;;
7707;SDS011;3896;48.758;8.888;2023-06-22T05:08:51;10.90;;;9.10;;
7707;SDS011;3896;48.758;8.888;2023-06-22T05:11:22;12.40;;;9.40;;
7707;SDS011;3896;48.758;8.888;2023-06-22T05:13:49;11.13;;;8.87;;
7707;SDS011;3896;48.758;8.888;2023-06-22T05:16:14;13.63;;;8.67;;
7707;SDS011;3896;48.758;8.888;2023-06-22T05:18:40;9.53;;;8.37;;
7707;SDS011;3896;48.758;8.888;2023-06-22T05:21:06;11.60;;;9.30;;
7707;SDS011;3896;48.758;8.888;2023-06-22T05:23:32;10.60;;;9.03;;
7707;SDS011;3896;48.758;8.888;2023-06-22T05:25:57;14.67;;;9.73;;
7707;SDS011;3896;48.758;8.888;2023-06-22T05:28:23;14.20;;;10.20;;
7707;SDS011;3896;48.758;8.888;2023-06-22T05:30:49;15.07;;;11.07;;
7707;SDS011;3896;48.758;8.888;2023-06-22T05:33:15;12.47;;;10.73;;
7707;SDS011;3896;48.758;8.888;2023-06-22T05:35:40;13.87;;;9.57;;
7707;SDS011;3896;48.758;8.888;2023-06-22T05:38:06;11.87;;;9.20;;
7707;SDS011;3896;48.758;8.888;2023-06-22T05:40:32;11.83;;;8.60;;
7707;SDS011;3896;48.758;8.888;2023-06-22T05:42:57;16.20;;;10.33;;
7707;SDS011;3896;48.758;8.888;2023-06-22T05:45:24;12.70;;;9.00;;
7707;SDS011;3896;48.758;8.888;2023-06-22T05:47:50;13.93;;;10.00;;
7707;SDS011;3896;48.758;8.888;2023-06-22T05:50:15;15.63;;;10.23;;
7707;SDS011;3896;48.758;8.888;2023-06-22T05:52:41;13.27;;;9.63;;
7707;SDS011;3896;48.758;8.888;2023-06-22T05:55:07;13.10;;;10.67;;
7707;SDS011;3896;48.758;8.888;2023-06-22T05:57:33;11.50;;;9.43;;
7707;SDS011;3896;48.758;8.888;2023-06-22T05:59:58;12.37;;;9.03;;
7707;SDS011;3896;48.758;8.888;2023-06-22T06:02:24;14.57;;;9.87;;
7707;SDS011;3896;48.758;8.888;2023-06-22T06:04:50;15.50;;;10.60;;
7707;SDS011;3896;48.758;8.888;2023-06-22T06:07:17;15.50;;;9.47;;
7707;SDS011;3896;48.758;8.888;2023-06-22T06:09:43;12.47;;;9.77;;
7707;SDS011;3896;48.758;8.888;2023-06-22T06:12:08;12.50;;;8.63;;
7707;SDS011;3896;48.758;8.888;2023-06-22T06:14:34;10.10;;;7.57;;
7707;SDS011;3896;48.758;8.888;2023-06-22T06:17:00;10.47;;;6.60;;
7707;SDS011;3896;48.758;8.888;2023-06-22T06:19:25;7.40;;;6.27;;
7707;SDS011;3896;48.758;8.888;2023-06-22T06:21:51;7.30;;;6.60;;
7707;SDS011;3896;48.758;8.888;2023-06-22T06:24:16;8.13;;;6.07;;
7707;SDS011;3896;48.758;8.888;2023-06-22T06:26:42;7.17;;;6.07;;
7707;SDS011;3896;48.758;8.888;2023-06-22T06:29:07;11.23;;;5.80;;
7707;SDS011;3896;48.758;8.888;2023-06-22T06:31:33;11.33;;;6.03;;
7707;SDS011;3896;48.758;8.888;2023-06-22T06:33:58;9.77;;;6.20;;
7707;SDS011;3896;48.758;8.888;2023-06-22T06:36:24;7.03;;;5.73;;
7707;SDS011;3896;48.758;8.888;2023-06-22T06:38:50;5.67;;;4.60;;
7707;SDS011;3896;48.758;8.888;2023-06-22T06:41:15;7.13;;;5.77;;
7707;SDS011;3896;48.758;8.888;2023-06-22T06:43:41;11.33;;;6.37;;
7707;SDS011;3896;48.758;8.888;2023-06-22T06:46:10;7.23;;;5.67;;
7707;SDS011;3896;48.758;8.888;2023-06-22T06:48:36;7.23;;;5.60;;
7707;SDS011;3896;48.758;8.888;2023-06-22T06:51:01;7.40;;;5.67;;
7707;SDS011;3896;48.758;8.888;2023-06-22T06:53:27;6.53;;;5.07;;
7707;SDS011;3896;48.758;8.888;2023-06-22T06:55:53;9.47;;;5.37;;
7707;SDS011;3896;48.758;8.888;2023-06-22T06:58:19;6.90;;;4.63;;
7707;SDS011;3896;48.758;8.888;2023-06-22T07:00:45;6.90;;;4.93;;
7707;SDS011;3896;48.758;8.888;2023-06-22T07:03:10;6.43;;;5.17;;
7707;SDS011;3896;48.758;8.888;2023-06-22T07:05:36;5.43;;;4.57;;
7707;SDS011;3896;48.758;8.888;2023-06-22T07:08:02;8.57;;;4.97;;
7707;SDS011;3896;48.758;8.888;2023-06-22T07:10:28;6.93;;;4.70;;
7707;SDS011;3896;48.758;8.888;2023-06-22T07:12:54;10.33;;;5.30;;
7707;SDS011;3896;48.758;8.888;2023-06-22T07:15:19;6.43;;;4.87;;
7707;SDS011;3896;48.758;8.888;2023-06-22T07:17:45;6.07;;;4.40;;
7707;SDS011;3896;48.758;8.888;2023-06-22T07:20:10;5.70;;;4.50;;
7707;SDS011;3896;48.758;8.888;2023-06-22T07:22:40;6.83;;;4.37;;
7707;SDS011;3896;48.758;8.888;2023-06-22T07:25:08;8.33;;;5.17;;
7707;SDS011;3896;48.758;8.888;2023-06-22T07:27:35;6.47;;;4.23;;
7707;SDS011;3896;48.758;8.888;2023-06-22T07:30:02;5.50;;;4.03;;
7707;SDS011;3896;48.758;8.888;2023-06-22T07:32:28;6.90;;;4.50;;
7707;SDS011;3896;48.758;8.888;2023-06-22T07:34:54;7.67;;;3.80;;
7707;SDS011;3896;48.758;8.888;2023-06-22T07:37:21;9.43;;;4.60;;
7707;SDS011;3896;48.758;8.888;2023-06-22T07:39:46;7.37;;;4.30;;
7707;SDS011;3896;48.758;8.888;2023-06-22T07:42:12;5.93;;;3.87;;
7707;SDS011;3896;48.758;8.888;2023-06-22T07:44:37;5.33;;;3.67;;
7707;SDS011;3896;48.758;8.888;2023-06-22T07:47:03;4.40;;;3.53;;
7707;SDS011;3896;48.758;8.888;2023-06-22T07:49:28;5.20;;;3.90;;
7707;SDS011;3896;48.758;8.888;2023-06-22T07:51:54;10.63;;;4.47;;
7707;SDS011;3896;48.758;8.888;2023-06-22T07:54:20;6.93;;;4.00;;
7707;SDS011;3896;48.758;8.888;2023-06-22T07:56:46;6.53;;;4.57;;
7707;SDS011;3896;48.758;8.888;2023-06-22T07:59:11;5.80;;;4.30;;
7707;SDS011;3896;48.758;8.888;2023-06-22T08:01:37;6.93;;;4.70;;
7707;SDS011;3896;48.758;8.888;2023-06-22T08:04:02;6.07;;;4.20;;
7707;SDS011;3896;48.758;8.888;2023-06-22T08:06:29;5.87;;;4.53;;
7707;SDS011;3896;48.758;8.888;2023-06-22T08:08:55;6.77;;;3.93;;
7707;SDS011;3896;48.758;8.888;2023-06-22T08:11:22;6.03;;;4.33;;
7707;SDS011;3896;48.758;8.888;2023-06-22T08:13:48;7.33;;;4.23;;
7707;SDS011;3896;48.758;8.888;2023-06-22T08:16:14;7.13;;;4.37;;
7707;SDS011;3896;48.758;8.888;2023-06-22T08:18:40;8.13;;;4.87;;
7707;SDS011;3896;48.758;8.888;2023-06-22T08:21:05;7.70;;;4.53;;
7707;SDS011;3896;48.758;8.888;2023-06-22T08:23:31;6.27;;;4.60;;
7707;SDS011;3896;48.758;8.888;2023-06-22T08:25:57;6.53;;;4.50;;
7707;SDS011;3896;48.758;8.888;2023-06-22T08:28:22;6.43;;;3.73;;
7707;SDS011;3896;48.758;8.888;2023-06-22T08:30:48;8.17;;;4.97;;
7707;SDS011;3896;48.758;8.888;2023-06-22T08:33:13;8.00;;;4.80;;
7707;SDS011;3896;48.758;8.888;2023-06-22T08:35:39;5.13;;;4.07;;
7707;SDS011;3896;48.758;8.888;2023-06-22T08:38:04;5.03;;;4.00;;
7707;SDS011;3896;48.758;8.888;2023-06-22T08:40:30;7.80;;;4.57;;
7707;SDS011;3896;48.758;8.888;2023-06-22T08:42:55;7.53;;;4.87;;
7707;SDS011;3896;48.758;8.888;2023-06-22T08:45:21;6.40;;;4.53;;
7707;SDS011;3896;48.758;8.888;2023-06-22T08:47:46;7.60;;;4.63;;
7707;SDS011;3896;48.758;8.888;2023-06-22T08:50:12;7.67;;;5.00;;
7707;SDS011;3896;48.758;8.888;2023-06-22T08:52:39;10.60;;;4.27;;
7707;SDS011;3896;48.758;8.888;2023-06-22T08:55:08;7.73;;;5.10;;
7707;SDS011;3896;48.758;8.888;2023-06-22T08:57:34;5.60;;;4.43;;
7707;SDS011;3896;48.758;8.888;2023-06-22T09:00:02;7.40;;;4.13;;
7707;SDS011;3896;48.758;8.888;2023-06-22T09:02:30;5.43;;;4.23;;
7707;SDS011;3896;48.758;8.888;2023-06-22T09:04:56;8.80;;;4.57;;
7707;SDS011;3896;48.758;8.888;2023-06-22T09:07:23;5.93;;;4.10;;
7707;SDS011;3896;48.758;8.888;2023-06-22T09:09:49;7.43;;;4.63;;
7707;SDS011;3896;48.758;8.888;2023-06-22T09:12:16;12.50;;;4.90;;
7707;SDS011;3896;48.758;8.888;2023-06-22T09:14:44;8.53;;;4.70;;
7707;SDS011;3896;48.758;8.888;2023-06-22T09:17:11;5.37;;;4.47;;
7707;SDS011;3896;48.758;8.888;2023-06-22T09:19:38;8.07;;;4.43;;
7707;SDS011;3896;48.758;8.888;2023-06-22T09:22:03;7.83;;;4.50;;
7707;SDS011;3896;48.758;8.888;2023-06-22T09:24:31;6.25;;;4.97;;
7707;SDS011;3896;48.758;8.888;2023-06-22T09:26:56;7.53;;;4.70;;
7707;SDS011;3896;48.758;8.888;2023-06-22T09:29:22;5.17;;;4.37;;
7707;SDS011;3896;48.758;8.888;2023-06-22T09:31:47;5.70;;;4.30;;
7707;SDS011;3896;48.758;8.888;2023-06-22T09:34:13;6.20;;;4.43;;
7707;SDS011;3896;48.758;8.888;2023-06-22T09:36:40;5.50;;;4.23;;
7707;SDS011;3896;48.758;8.888;2023-06-22T09:39:06;8.13;;;4.53;;
7707;SDS011;3896;48.758;8.888;2023-06-22T09:41:32;6.93;;;4.30;;
7707;SDS011;3896;48.758;8.888;2023-06-22T09:43:57;4.97;;;4.20;;
7707;SDS011;3896;48.758;8.888;2023-06-22T09:46:23;8.03;;;4.27;;
7707;SDS011;3896;48.758;8.888;2023-06-22T09:48:50;8.77;;;4.70;;
7707;SDS011;3896;48.758;8.888;2023-06-22T09:51:16;6.50;;;4.20;;
7707;SDS011;3896;48.758;8.888;2023-06-22T09:53:42;8.73;;;4.75;;
7707;SDS011;3896;48.758;8.888;2023-06-22T09:56:07;8.75;;;5.20;;
7707;SDS011;3896;48.758;8.888;2023-06-22T09:58:39;6.20;;;4.22;;
7707;SDS011;3896;48.758;8.888;2023-06-22T10:01:05;7.05;;;4.45;;
7707;SDS011;3896;48.758;8.888;2023-06-22T10:03:30;6.47;;;4.65;;
7707;SDS011;3896;48.758;8.888;2023-06-22T10:05:56;7.97;;;4.43;;
7707;SDS011;3896;48.758;8.888;2023-06-22T10:08:22;6.60;;;4.05;;
7707;SDS011;3896;48.758;8.888;2023-06-22T10:10:47;6.93;;;4.40;;
7707;SDS011;3896;48.758;8.888;2023-06-22T10:13:13;6.50;;;4.63;;
7707;SDS011;3896;48.758;8.888;2023-06-22T10:15:39;7.75;;;4.60;;
7707;SDS011;3896;48.758;8.888;2023-06-22T10:18:05;9.18;;;4.60;;
7707;SDS011;3896;48.758;8.888;2023-06-22T10:20:31;9.25;;;4.68;;
7707;SDS011;3896;48.758;8.888;2023-06-22T10:22:56;7.72;;;5.07;;
7707;SDS011;3896;48.758;8.888;2023-06-22T10:25:22;8.05;;;3.88;;
7707;SDS011;3896;48.758;8.888;2023-06-22T10:27:48;7.88;;;4.22;;
7707;SDS011;3896;48.758;8.888;2023-06-22T10:30:13;12.63;;;4.55;;
7707;SDS011;3896;48.758;8.888;2023-06-22T10:32:40;7.57;;;4.65;;
7707;SDS011;3896;48.758;8.888;2023-06-22T10:35:07;8.25;;;4.30;;
7707;SDS011;3896;48.758;8.888;2023-06-22T10:37:35;9.18;;;5.13;;
7707;SDS011;3896;48.758;8.888;2023-06-22T10:40:01;9.73;;;4.40;;
7707;SDS011;3896;48.758;8.888;2023-06-22T10:42:28;6.45;;;4.07;;
7707;SDS011;3896;48.758;8.888;2023-06-22T10:44:54;6.10;;;4.47;;
7707;SDS011;3896;48.758;8.888;2023-06-22T10:47:19;7.68;;;4.07;;
7707;SDS011;3896;48.758;8.888;2023-06-22T10:49:45;9.60;;;4.30;;
7707;SDS011;3896;48.758;8.888;2023-06-22T10:52:10;7.88;;;4.50;;
7707;SDS011;3896;48.758;8.888;2023-06-22T10:54:36;9.05;;;4.80;;
7707;SDS011;3896;48.758;8.888;2023-06-22T10:57:02;7.75;;;4.10;;
7707;SDS011;3896;48.758;8.888;2023-06-22T10:59:28;9.27;;;4.47;;
7707;SDS011;3896;48.758;8.888;2023-06-22T11:01:57;9.00;;;4.40;;
7707;SDS011;3896;48.758;8.888;2023-06-22T11:04:23;6.30;;;4.35;;
7707;SDS011;3896;48.758;8.888;2023-06-22T11:06:50;7.88;;;4.47;;
7707;SDS011;3896;48.758;8.888;2023-06-22T11:09:16;9.05;;;4.88;;
7707;SDS011;3896;48.758;8.888;2023-06-22T11:11:45;8.95;;;4.57;;
7707;SDS011;3896;48.758;8.888;2023-06-22T11:14:11;9.68;;;4.93;;
7707;SDS011;3896;48.758;8.888;2023-06-22T11:16:37;9.65;;;4.97;;
7707;SDS011;3896;48.758;8.888;2023-06-22T11:19:04;6.72;;;4.15;;
7707;SDS011;3896;48.758;8.888;2023-06-22T11:21:30;7.68;;;4.13;;
7707;SDS011;3896;48.758;8.888;2023-06-22T11:23:56;13.48;;;5.28;;
7707;SDS011;3896;48.758;8.888;2023-06-22T11:26:22;8.65;;;4.53;;
7707;SDS011;3896;48.758;8.888;2023-06-22T11:28:48;6.30;;;4.72;;
7707;SDS011;3896;48.758;8.888;2023-06-22T11:31:13;9.05;;;4.72;;
7707;SDS011;3896;48.758;8.888;2023-06-22T11:33:39;11.68;;;5.47;;
7707;SDS011;3896;48.758;8.888;2023-06-22T11:36:05;7.40;;;4.43;;
7707;SDS011;3896;48.758;8.888;2023-06-22T11:38:30;6.85;;;4.45;;
7707;SDS011;3896;48.758;8.888;2023-06-22T11:40:57;9.13;;;4.53;;
7707;SDS011;3896;48.758;8.888;2023-06-22T11:43:23;5.72;;;4.57;;
7707;SDS011;3896;48.758;8.888;2023-06-22T11:45:49;7.03;;;4.40;;
7707;SDS011;3896;48.758;8.888;2023-06-22T11:48:15;6.28;;;4.20;;
7707;SDS011;3896;48.758;8.888;2023-06-22T11:50:41;7.72;;;4.38;;
7707;SDS011;3896;48.758;8.888;2023-06-22T11:53:06;11.25;;;5.13;;
7707;SDS011;3896;48.758;8.888;2023-06-22T11:55:32;5.93;;;4.45;;
7707;SDS011;3896;48.758;8.888;2023-06-22T11:57:58;8.30;;;4.55;;
7707;SDS011;3896;48.758;8.888;2023-06-22T12:00:25;9.80;;;4.80;;
7707;SDS011;3896;48.758;8.888;2023-06-22T12:02:51;6.10;;;4.65;;
7707;SDS011;3896;48.758;8.888;2023-06-22T12:05:20;8.65;;;4.65;;
7707;SDS011;3896;48.758;8.888;2023-06-22T12:07:47;11.52;;;5.22;;
7707;SDS011;3896;48.758;8.888;2023-06-22T12:10:13;6.50;;;4.63;;
7707;SDS011;3896;48.758;8.888;2023-06-22T12:12:38;5.80;;;4.80;;
7707;SDS011;3896;48.758;8.888;2023-06-22T12:15:04;8.15;;;4.47;;
7707;SDS011;3896;48.758;8.888;2023-06-22T12:17:30;9.05;;;4.15;;
7707;SDS011;3896;48.758;8.888;2023-06-22T12:19:56;9.93;;;4.15;;
7707;SDS011;3896;48.758;8.888;2023-06-22T12:22:21;10.25;;;3.97;;
7707;SDS011;3896;48.758;8.888;2023-06-22T12:24:47;8.93;;;4.50;;
7707;SDS011;3896;48.758;8.888;2023-06-22T12:27:13;10.57;;;3.92;;
7707;SDS011;3896;48.758;8.888;2023-06-22T12:29:41;5.88;;;4.30;;
7707;SDS011;3896;48.758;8.888;2023-06-22T12:32:07;8.15;;;4.40;;
7707;SDS011;3896;48.758;8.888;2023-06-22T12:34:32;12.13;;;5.75;;
7707;SDS011;3896;48.758;8.888;2023-06-22T12:36:58;8.73;;;4.70;;
7707;SDS011;3896;48.758;8.888;2023-06-22T12:39:23;6.32;;;4.18;;
7707;SDS011;3896;48.758;8.888;2023-06-22T12:41:49;5.70;;;4.40;;
7707;SDS011;3896;48.758;8.888;2023-06-22T12:44:15;10.57;;;4.85;;
7707;SDS011;3896;48.758;8.888;2023-06-22T12:46:40;7.03;;;4.38;;
7707;SDS011;3896;48.758;8.888;2023-06-22T12:49:06;8.43;;;4.72;;
7707;SDS011;3896;48.758;8.888;2023-06-22T12:51:31;8.88;;;4.25;;
7707;SDS011;3896;48.758;8.888;2023-06-22T12:53:57;6.80;;;4.60;;
7707;SDS011;3896;48.758;8.888;2023-06-22T12:56:22;5.75;;;4.80;;
7707;SDS011;3896;48.758;8.888;2023-06-22T12:58:48;8.52;;;4.85;;
7707;SDS011;3896;48.758;8.888;2023-06-22T13:01:13;7.93;;;4.72;;
7707;SDS011;3896;48.758;8.888;2023-06-22T13:03:39;8.95;;;4.88;;
7707;SDS011;3896;48.758;8.888;2023-06-22T13:06:06;10.85;;;5.25;;
7707;SDS011;3896;48.758;8.888;2023-06-22T13:08:32;6.47;;;4.88;;
7707;SDS011;3896;48.758;8.888;2023-06-22T13:10:57;7.72;;;5.00;;
7707;SDS011;3896;48.758;8.888;2023-06-22T13:13:23;5.93;;;4.25;;
7707;SDS011;3896;48.758;8.888;2023-06-22T13:15:52;5.32;;;4.40;;
7707;SDS011;3896;48.758;8.888;2023-06-22T13:18:19;9.85;;;5.47;;
7707;SDS011;3896;48.758;8.888;2023-06-22T13:20:44;8.02;;;4.50;;
7707;SDS011;3896;48.758;8.888;2023-06-22T13:23:10;7.43;;;4.68;;
7707;SDS011;3896;48.758;8.888;2023-06-22T13:25:36;11.43;;;4.90;;
7707;SDS011;3896;48.758;8.888;2023-06-22T13:28:01;8.48;;;5.70;;
7707;SDS011;3896;48.758;8.888;2023-06-22T13:30:27;6.97;;;4.57;;
7707;SDS011;3896;48.758;8.888;2023-06-22T13:32:53;9.38;;;4.90;;
7707;SDS011;3896;48.758;8.888;2023-06-22T13:35:18;6.18;;;4.25;;
7707;SDS011;3896;48.758;8.888;2023-06-22T13:37:44;6.97;;;4.28;;
7707;SDS011;3896;48.758;8.888;2023-06-22T13:40:10;7.05;;;4.38;;
7707;SDS011;3896;48.758;8.888;2023-06-22T13:42:35;7.60;;;4.80;;
7707;SDS011;3896;48.758;8.888;2023-06-22T13:45:01;7.35;;;4.00;;
7707;SDS011;3896;48.758;8.888;2023-06-22T13:47:27;7.57;;;5.00;;
7707;SDS011;3896;48.758;8.888;2023-06-22T13:49:54;6.82;;;4.53;;
7707;SDS011;3896;48.758;8.888;2023-06-22T13:52:19;6.82;;;4.22;;
7707;SDS011;3896;48.758;8.888;2023-06-22T13:54:45;6.82;;;4.50;;
7707;SDS011;3896;48.758;8.888;2023-06-22T13:57:11;6.50;;;4.68;;
7707;SDS011;3896;48.758;8.888;2023-06-22T13:59:36;9.75;;;4.93;;
7707;SDS011;3896;48.758;8.888;2023-06-22T14:02:02;6.07;;;4.47;;
7707;SDS011;3896;48.758;8.888;2023-06-22T14:04:28;6.38;;;4.05;;
7707;SDS011;3896;48.758;8.888;2023-06-22T14:06:53;9.95;;;4.57;;
7707;SDS011;3896;48.758;8.888;2023-06-22T14:09:20;7.57;;;4.68;;
7707;SDS011;3896;48.758;8.888;2023-06-22T14:11:46;6.78;;;3.78;;
7707;SDS011;3896;48.758;8.888;2023-06-22T14:14:11;6.55;;;4.20;;
7707;SDS011;3896;48.758;8.888;2023-06-22T14:16:37;12.80;;;3.97;;
7707;SDS011;3896;48.758;8.888;2023-06-22T14:19:03;9.90;;;4.25;;
7707;SDS011;3896;48.758;8.888;2023-06-22T14:21:28;6.97;;;3.20;;
7707;SDS011;3896;48.758;8.888;2023-06-22T14:23:54;7.13;;;2.60;;
7707;SDS011;3896;48.758;8.888;2023-06-22T14:26:20;6.78;;;2.70;;
7707;SDS011;3896;48.758;8.888;2023-06-22T14:28:46;10.65;;;3.30;;
7707;SDS011;3896;48.758;8.888;2023-06-22T14:31:16;12.55;;;2.78;;
7707;SDS011;3896;48.758;8.888;2023-06-22T14:33:45;9.90;;;3.05;;
7707;SDS011;3896;48.758;8.888;2023-06-22T14:36:12;6.75;;;3.33;;
7707;SDS011;3896;48.758;8.888;2023-06-22T14:38:38;8.35;;;3.22;;
7707;SDS011;3896;48.758;8.888;2023-06-22T14:41:04;9.68;;;3.03;;
7707;SDS011;3896;48.758;8.888;2023-06-22T14:43:29;7.15;;;2.53;;
7707;SDS011;3896;48.758;8.888;2023-06-22T14:45:55;4.65;;;2.80;;
7707;SDS011;3896;48.758;8.888;2023-06-22T14:48:21;5.32;;;2.80;;
7707;SDS011;3896;48.758;8.888;2023-06-22T14:50:46;5.07;;;2.83;;
7707;SDS011;3896;48.758;8.888;2023-06-22T14:53:12;4.20;;;2.50;;
7707;SDS011;3896;48.758;8.888;2023-06-22T14:55:39;9.27;;;2.60;;
7707;SDS011;3896;48.758;8.888;2023-06-22T14:58:04;7.65;;;3.03;;
7707;SDS011;3896;48.758;8.888;2023-06-22T15:00:30;9.05;;;4.28;;
7707;SDS011;3896;48.758;8.888;2023-06-22T15:02:55;6.30;;;2.85;;
7707;SDS011;3896;48.758;8.888;2023-06-22T15:05:22;7.25;;;2.75;;
7707;SDS011;3896;48.758;8.888;2023-06-22T15:07:49;9.70;;;3.72;;
7707;SDS011;3896;48.758;8.888;2023-06-22T15:10:14;7.38;;;2.60;;